Naikai2 — JD2433 — position and weather

sailwx.info

Track history (hours):
 
Tides and Currents Weather Stations Pressure Air Temp Water Temp Dewpoint Dewpoint Depression Visibility Wind Speed Wind Dir Waves Ship Positions

Naikai2

Last reported at 2017-Jun-24 20:07 UTC. Time now 2017-Jun-24 20:52 UTC.
Position N 34°38' E 135°08'.

Length 28 m; draft 2.2 m.

Type: Other ship. MMSI: 431000283.

Date/timePositionNaut miles runAvg speedWind from/ knotsBaromVisibWave heightAir tempDewpointWater temp
2017-Jun-24 20:07N 34°38' E 135°08'113.1
2017-Jun-24 20:00N 34°37' E 135°06'713.6
2017-Jun-24 19:30N 34°37' E 134°58'4 8.6
2017-Jun-24 19:00N 34°36' E 135°03'4 7.4
2017-Jun-24 18:30N 34°34' E 135°06'510.7
2017-Jun-24 18:00N 34°39' E 135°10'0 0.4
2017-Jun-24 17:30N 34°39' E 135°10'0 0.0
2017-Jun-24 17:00N 34°39' E 135°10'1 0.1
2017-Jun-24 05:05N 34°38' E 135°10'114.7
2017-Jun-24 05:00N 34°37' E 135°09'815.4
2017-Jun-24 04:29N 34°38' E 134°59'2 3.7
2017-Jun-24 03:56N 34°37' E 135°01'4 8.7
2017-Jun-24 03:30N 34°35' E 135°05'3 6.3
2017-Jun-24 03:00N 34°36' E 135°09'3 6.9
2017-Jun-24 02:30N 34°39' E 135°11'1 2.3
2017-Jun-24 02:00N 34°40' E 135°11'1 2.5
2017-Jun-24 01:30N 34°39' E 135°10'1 0.1
2017-Jun-23 19:29N 34°38' E 135°10'613.2
2017-Jun-23 19:00N 34°37' E 135°02'3 6.3
2017-Jun-23 18:30N 34°37' E 134°58'4 8.9
2017-Jun-23 18:00N 34°36' E 135°04'4 8.1
2017-Jun-23 17:30N 34°34' E 135°08'3 6.9
2017-Jun-23 17:00N 34°31' E 135°07'611.2
2017-Jun-23 16:30N 34°26' E 135°04'712.1
2017-Jun-23 15:56N 34°20' E 135°00'510.6
2017-Jun-23 15:29N 34°15' E 134°60'510.5
2017-Jun-23 15:01N 34°10' E 135°00'1211.2
2017-Jun-23 13:57N 34°21' E 134°54'9 0.9
2017-Jun-23 03:36N 34°24' E 135°04'215.6
2017-Jun-23 03:28N 34°26' E 135°06'613.8
2017-Jun-23 03:00N 34°30' E 135°12'611.9
2017-Jun-23 02:30N 34°33' E 135°18'5 9.9
2017-Jun-23 02:01N 34°33' E 135°24'0 0.5
2017-Jun-23 01:25N 34°33' E 135°24'511.2
2017-Jun-23 01:00N 34°35' E 135°19'713.5
2017-Jun-23 00:30N 34°38' E 135°11'1 0.1
2017-Jun-22 01:56N 34°39' E 135°10'614.1
2017-Jun-22 01:30N 34°36' E 135°17'712.8
2017-Jun-22 00:59N 34°33' E 135°24'2 3.5
2017-Jun-22 00:28N 34°33' E 135°22'510.1
2017-Jun-22 00:00N 34°33' E 135°16'613.0
2017-Jun-21 23:30N 34°30' E 135°10'612.5
2017-Jun-21 23:00N 34°25' E 135°04'1114.4
2017-Jun-21 22:16N 34°15' E 134°59'310.6
2017-Jun-21 22:01N 34°13' E 134°59'1 2.2
2017-Jun-21 21:29N 34°13' E 134°60'711.5
2017-Jun-21 20:50N 34°21' E 134°59'513.8
2017-Jun-21 20:29N 34°25' E 135°02'714.1
2017-Jun-21 20:00N 34°31' E 135°06'714.2
2017-Jun-21 19:30N 34°38' E 135°09'1 0.0
2017-Jun-20 09:04N 34°39' E 135°10'114.1
2017-Jun-20 09:00N 34°38' E 135°09'511.1
2017-Jun-20 08:30N 34°36' E 135°03'5 5.3
2017-Jun-20 07:36N 34°37' E 134°57'214.0
2017-Jun-20 07:27N 34°38' E 134°60'614.3
2017-Jun-20 07:00N 34°37' E 135°07'3 5.4
2017-Jun-20 06:30N 34°39' E 135°10'0 0.0
2017-Jun-20 02:15N 34°39' E 135°10'1 5.3
2017-Jun-20 02:00N 34°40' E 135°11'2 3.2
2017-Jun-20 01:30N 34°39' E 135°11'8 7.5
2017-Jun-20 00:26N 34°37' E 135°01'410.2
2017-Jun-20 00:00N 34°35' E 135°06'3 5.3
2017-Jun-19 23:30N 34°36' E 135°09'3 5.5
2017-Jun-19 23:00N 34°39' E 135°10'0 0.0
2017-Jun-19 22:30N 34°39' E 135°10'1 0.0
2017-Jun-19 07:56N 34°38' E 135°10'614.0
2017-Jun-19 07:30N 34°35' E 135°03'4 4.5
2017-Jun-19 06:37N 34°37' E 134°59'212.1
2017-Jun-19 06:29N 34°36' E 135°01'0 0.0
2017-Jun-19 06:00N 34°36' E 135°01'0 0.0
2017-Jun-19 05:30N 34°36' E 135°01'0 0.0
2017-Jun-19 05:00N 34°36' E 135°01'1 1.4
2017-Jun-19 04:30N 34°36' E 135°01'4 5.6
2017-Jun-19 03:49N 34°36' E 134°57'1 1.9
2017-Jun-19 03:25N 34°36' E 134°57'2 1.8
2017-Jun-19 02:17N 34°37' E 134°58'2 8.7
2017-Jun-19 02:00N 34°37' E 135°01'5 9.1
2017-Jun-19 01:30N 34°35' E 135°06'3 6.9
2017-Jun-19 01:00N 34°35' E 135°10'4 8.3
2017-Jun-19 00:30N 34°39' E 135°10'0 0.3
2017-Jun-19 00:00N 34°39' E 135°10'0 0.0
2017-Jun-18 23:30N 34°39' E 135°10'0 0.0
2017-Jun-18 07:03N 34°39' E 135°10'010.0
2017-Jun-18 07:00N 34°38' E 135°10'611.7
2017-Jun-18 06:30N 34°35' E 135°04'6 6.5
2017-Jun-18 05:34N 34°35' E 134°56'0 0.5
2017-Jun-18 05:19N 34°35' E 134°57'4 2.9
2017-Jun-18 04:05N 34°38' E 134°60'112.4
2017-Jun-18 03:59N 34°37' E 135°01'510.8
2017-Jun-18 03:31N 34°35' E 135°07'4 7.8
2017-Jun-18 03:01N 34°38' E 135°10'1 2.4
2017-Jun-18 02:31N 34°39' E 135°10'0 0.0
2017-Jun-18 02:00N 34°39' E 135°10'0 0.0
2017-Jun-18 01:31N 34°39' E 135°10'1 0.4
2017-Jun-17 23:47N 34°38' E 135°10'414.1
2017-Jun-17 23:30N 34°37' E 135°05'5 9.3
2017-Jun-17 22:56N 34°38' E 134°59'510.9
2017-Jun-17 22:30N 34°36' E 135°04'5 9.2
2017-Jun-17 22:00N 34°37' E 135°09'2 3.6
2017-Jun-17 21:31N 34°39' E 135°10'0 0.0
2017-Jun-17 21:00N 34°39' E 135°10'1 0.0
2017-Jun-16 17:29N 34°38' E 135°10'613.2
2017-Jun-16 17:00N 34°38' E 135°02'3 6.2
2017-Jun-16 16:30N 34°37' E 134°58'510.7
2017-Jun-16 16:00N 34°36' E 135°04'4 7.6
2017-Jun-16 15:31N 34°36' E 135°09'3 5.6
2017-Jun-16 15:00N 34°39' E 135°10'0 0.0
2017-Jun-16 14:30N 34°39' E 135°10'2 0.2
2017-Jun-16 06:25N 34°37' E 135°09'614.8
2017-Jun-16 06:00N 34°31' E 135°06'7 3.5
2017-Jun-16 03:57N 34°25' E 135°03'614.2
2017-Jun-16 03:30N 34°28' E 135°10'815.1
2017-Jun-16 03:00N 34°32' E 135°17'5 9.2
2017-Jun-16 02:29N 34°33' E 135°23'1 1.2
2017-Jun-16 01:40N 34°34' E 135°24'0 0.4
2017-Jun-16 01:30N 34°34' E 135°24'611.7
2017-Jun-16 01:00N 34°37' E 135°18'611.4
2017-Jun-16 00:30N 34°40' E 135°12'0 0.9
2017-Jun-16 00:00N 34°39' E 135°11'2 0.1
2017-Jun-15 07:55N 34°38' E 135°10'614.8
2017-Jun-15 07:31N 34°33' E 135°08'1314.9
2017-Jun-15 06:37N 34°20' E 135°01'512.9
2017-Jun-15 06:12N 34°15' E 134°59'910.7
2017-Jun-15 05:24N 34°24' E 135°02'615.9
2017-Jun-15 05:01N 34°27' E 135°08'816.6
2017-Jun-15 04:30N 34°32' E 135°17'510.3
2017-Jun-15 04:00N 34°33' E 135°23'1 1.9
2017-Jun-15 03:28N 34°33' E 135°24'3 5.1
2017-Jun-15 02:57N 34°33' E 135°21'1 3.0
2017-Jun-15 02:30N 34°34' E 135°22'2 3.1
2017-Jun-15 01:59N 34°35' E 135°22'2 3.4
2017-Jun-15 01:30N 34°35' E 135°24'1 1.7
2017-Jun-15 00:55N 34°34' E 135°24'2 5.8
2017-Jun-15 00:29N 34°33' E 135°21'4 8.0
2017-Jun-14 23:56N 34°31' E 135°16'511.4
2017-Jun-14 23:28N 34°28' E 135°11'612.0
2017-Jun-14 23:00N 34°24' E 135°06'1113.5
2017-Jun-14 22:09N 34°14' E 134°59'210.4
2017-Jun-14 21:59N 34°13' E 134°59'10 7.3
2017-Jun-14 20:38N 34°23' E 135°01'215.2
2017-Jun-14 20:31N 34°24' E 135°02'  
Track history (hours):
 
Tides and Currents Weather Stations Pressure Air Temp Water Temp Dewpoint Dewpoint Depression Visibility Wind Speed Wind Dir Waves Ship Positions

Naikai2

Last reported at 2017-Jun-24 20:07 UTC. Time now 2017-Jun-24 20:52 UTC.
Position N 34°38' E 135°08'.

Length 28 m; draft 2.2 m.

Type: Other ship. MMSI: 431000283.

Date/timePositionNaut miles runAvg speedWind from/ knotsBaromVisibWave heightAir tempDewpointWater temp
2017-Jun-24 20:07N 34°38' E 135°08'113.1
2017-Jun-24 20:00N 34°37' E 135°06'713.6
2017-Jun-24 19:30N 34°37' E 134°58'4 8.6
2017-Jun-24 19:00N 34°36' E 135°03'4 7.4
2017-Jun-24 18:30N 34°34' E 135°06'510.7
2017-Jun-24 18:00N 34°39' E 135°10'0 0.4
2017-Jun-24 17:30N 34°39' E 135°10'0 0.0
2017-Jun-24 17:00N 34°39' E 135°10'1 0.1
2017-Jun-24 05:05N 34°38' E 135°10'114.7
2017-Jun-24 05:00N 34°37' E 135°09'815.4
2017-Jun-24 04:29N 34°38' E 134°59'2 3.7
2017-Jun-24 03:56N 34°37' E 135°01'4 8.7
2017-Jun-24 03:30N 34°35' E 135°05'3 6.3
2017-Jun-24 03:00N 34°36' E 135°09'3 6.9
2017-Jun-24 02:30N 34°39' E 135°11'1 2.3
2017-Jun-24 02:00N 34°40' E 135°11'1 2.5
2017-Jun-24 01:30N 34°39' E 135°10'1 0.1
2017-Jun-23 19:29N 34°38' E 135°10'613.2
2017-Jun-23 19:00N 34°37' E 135°02'3 6.3
2017-Jun-23 18:30N 34°37' E 134°58'4 8.9
2017-Jun-23 18:00N 34°36' E 135°04'4 8.1
2017-Jun-23 17:30N 34°34' E 135°08'3 6.9
2017-Jun-23 17:00N 34°31' E 135°07'611.2
2017-Jun-23 16:30N 34°26' E 135°04'712.1
2017-Jun-23 15:56N 34°20' E 135°00'510.6
2017-Jun-23 15:29N 34°15' E 134°60'510.5
2017-Jun-23 15:01N 34°10' E 135°00'1211.2
2017-Jun-23 13:57N 34°21' E 134°54'9 0.9
2017-Jun-23 03:36N 34°24' E 135°04'215.6
2017-Jun-23 03:28N 34°26' E 135°06'613.8
2017-Jun-23 03:00N 34°30' E 135°12'611.9
2017-Jun-23 02:30N 34°33' E 135°18'5 9.9
2017-Jun-23 02:01N 34°33' E 135°24'0 0.5
2017-Jun-23 01:25N 34°33' E 135°24'511.2
2017-Jun-23 01:00N 34°35' E 135°19'713.5
2017-Jun-23 00:30N 34°38' E 135°11'1 0.1
2017-Jun-22 01:56N 34°39' E 135°10'614.1
2017-Jun-22 01:30N 34°36' E 135°17'712.8
2017-Jun-22 00:59N 34°33' E 135°24'2 3.5
2017-Jun-22 00:28N 34°33' E 135°22'510.1
2017-Jun-22 00:00N 34°33' E 135°16'613.0
2017-Jun-21 23:30N 34°30' E 135°10'612.5
2017-Jun-21 23:00N 34°25' E 135°04'1114.4
2017-Jun-21 22:16N 34°15' E 134°59'310.6
2017-Jun-21 22:01N 34°13' E 134°59'1 2.2
2017-Jun-21 21:29N 34°13' E 134°60'711.5
2017-Jun-21 20:50N 34°21' E 134°59'513.8
2017-Jun-21 20:29N 34°25' E 135°02'714.1
2017-Jun-21 20:00N 34°31' E 135°06'714.2
2017-Jun-21 19:30N 34°38' E 135°09'1 0.0
2017-Jun-20 09:04N 34°39' E 135°10'114.1
2017-Jun-20 09:00N 34°38' E 135°09'511.1
2017-Jun-20 08:30N 34°36' E 135°03'5 5.3
2017-Jun-20 07:36N 34°37' E 134°57'214.0
2017-Jun-20 07:27N 34°38' E 134°60'614.3
2017-Jun-20 07:00N 34°37' E 135°07'3 5.4
2017-Jun-20 06:30N 34°39' E 135°10'0 0.0
2017-Jun-20 02:15N 34°39' E 135°10'1 5.3
2017-Jun-20 02:00N 34°40' E 135°11'2 3.2
2017-Jun-20 01:30N 34°39' E 135°11'8 7.5
2017-Jun-20 00:26N 34°37' E 135°01'410.2
2017-Jun-20 00:00N 34°35' E 135°06'3 5.3
2017-Jun-19 23:30N 34°36' E 135°09'3 5.5
2017-Jun-19 23:00N 34°39' E 135°10'0 0.0
2017-Jun-19 22:30N 34°39' E 135°10'1 0.0
2017-Jun-19 07:56N 34°38' E 135°10'614.0
2017-Jun-19 07:30N 34°35' E 135°03'4 4.5
2017-Jun-19 06:37N 34°37' E 134°59'212.1
2017-Jun-19 06:29N 34°36' E 135°01'0 0.0
2017-Jun-19 06:00N 34°36' E 135°01'0 0.0
2017-Jun-19 05:30N 34°36' E 135°01'0 0.0
2017-Jun-19 05:00N 34°36' E 135°01'1 1.4
2017-Jun-19 04:30N 34°36' E 135°01'4 5.6
2017-Jun-19 03:49N 34°36' E 134°57'1 1.9
2017-Jun-19 03:25N 34°36' E 134°57'2 1.8
2017-Jun-19 02:17N 34°37' E 134°58'2 8.7
2017-Jun-19 02:00N 34°37' E 135°01'5 9.1
2017-Jun-19 01:30N 34°35' E 135°06'3 6.9
2017-Jun-19 01:00N 34°35' E 135°10'4 8.3
2017-Jun-19 00:30N 34°39' E 135°10'0 0.3
2017-Jun-19 00:00N 34°39' E 135°10'0 0.0
2017-Jun-18 23:30N 34°39' E 135°10'0 0.0
2017-Jun-18 07:03N 34°39' E 135°10'010.0
2017-Jun-18 07:00N 34°38' E 135°10'611.7
2017-Jun-18 06:30N 34°35' E 135°04'6 6.5
2017-Jun-18 05:34N 34°35' E 134°56'0 0.5
2017-Jun-18 05:19N 34°35' E 134°57'4 2.9
2017-Jun-18 04:05N 34°38' E 134°60'112.4
2017-Jun-18 03:59N 34°37' E 135°01'510.8
2017-Jun-18 03:31N 34°35' E 135°07'4 7.8
2017-Jun-18 03:01N 34°38' E 135°10'1 2.4
2017-Jun-18 02:31N 34°39' E 135°10'0 0.0
2017-Jun-18 02:00N 34°39' E 135°10'0 0.0
2017-Jun-18 01:31N 34°39' E 135°10'1 0.4
2017-Jun-17 23:47N 34°38' E 135°10'414.1
2017-Jun-17 23:30N 34°37' E 135°05'5 9.3
2017-Jun-17 22:56N 34°38' E 134°59'510.9
2017-Jun-17 22:30N 34°36' E 135°04'5 9.2
2017-Jun-17 22:00N 34°37' E 135°09'2 3.6
2017-Jun-17 21:31N 34°39' E 135°10'0 0.0
2017-Jun-17 21:00N 34°39' E 135°10'1 0.0
2017-Jun-16 17:29N 34°38' E 135°10'613.2
2017-Jun-16 17:00N 34°38' E 135°02'3 6.2
2017-Jun-16 16:30N 34°37' E 134°58'510.7
2017-Jun-16 16:00N 34°36' E 135°04'4 7.6
2017-Jun-16 15:31N 34°36' E 135°09'3 5.6
2017-Jun-16 15:00N 34°39' E 135°10'0 0.0
2017-Jun-16 14:30N 34°39' E 135°10'2 0.2
2017-Jun-16 06:25N 34°37' E 135°09'614.8
2017-Jun-16 06:00N 34°31' E 135°06'7 3.5
2017-Jun-16 03:57N 34°25' E 135°03'614.2
2017-Jun-16 03:30N 34°28' E 135°10'815.1
2017-Jun-16 03:00N 34°32' E 135°17'5 9.2
2017-Jun-16 02:29N 34°33' E 135°23'1 1.2
2017-Jun-16 01:40N 34°34' E 135°24'0 0.4
2017-Jun-16 01:30N 34°34' E 135°24'611.7
2017-Jun-16 01:00N 34°37' E 135°18'611.4
2017-Jun-16 00:30N 34°40' E 135°12'0 0.9
2017-Jun-16 00:00N 34°39' E 135°11'2 0.1
2017-Jun-15 07:55N 34°38' E 135°10'614.8
2017-Jun-15 07:31N 34°33' E 135°08'1314.9
2017-Jun-15 06:37N 34°20' E 135°01'512.9
2017-Jun-15 06:12N 34°15' E 134°59'910.7
2017-Jun-15 05:24N 34°24' E 135°02'615.9
2017-Jun-15 05:01N 34°27' E 135°08'816.6
2017-Jun-15 04:30N 34°32' E 135°17'510.3
2017-Jun-15 04:00N 34°33' E 135°23'1 1.9
2017-Jun-15 03:28N 34°33' E 135°24'3 5.1
2017-Jun-15 02:57N 34°33' E 135°21'1 3.0
2017-Jun-15 02:30N 34°34' E 135°22'2 3.1
2017-Jun-15 01:59N 34°35' E 135°22'2 3.4
2017-Jun-15 01:30N 34°35' E 135°24'1 1.7
2017-Jun-15 00:55N 34°34' E 135°24'2 5.8
2017-Jun-15 00:29N 34°33' E 135°21'4 8.0
2017-Jun-14 23:56N 34°31' E 135°16'511.4
2017-Jun-14 23:28N 34°28' E 135°11'612.0
2017-Jun-14 23:00N 34°24' E 135°06'1113.5
2017-Jun-14 22:09N 34°14' E 134°59'210.4
2017-Jun-14 21:59N 34°13' E 134°59'10 7.3
2017-Jun-14 20:38N 34°23' E 135°01'215.2
2017-Jun-14 20:31N 34°24' E 135°02'  

Dump ship's entire track history